createdAt,value
2023-01-28T00:03:45.300Z,83.79
2023-01-28T00:08:49.345Z,83.89
2023-01-28T00:13:53.356Z,83.64
2023-01-28T00:18:56.160Z,83.27
2023-01-28T00:23:58.832Z,83.64
2023-01-28T00:29:02.022Z,83.97
2023-01-28T00:34:04.693Z,83.77
2023-01-28T00:39:07.233Z,83.69
2023-01-28T00:44:10.031Z,83.44
2023-01-28T00:49:12.672Z,83.24
2023-01-28T00:54:15.289Z,83.56
2023-01-28T00:59:17.858Z,83.71
2023-01-28T01:04:26.485Z,83.72
2023-01-28T01:09:29.112Z,83.78
2023-01-28T01:14:31.898Z,83.52
2023-01-28T01:19:34.517Z,83.89
2023-01-28T01:24:37.118Z,84.12
2023-01-28T01:29:39.765Z,84.10
2023-01-28T01:34:42.340Z,84.46
2023-01-28T01:39:44.898Z,84.57
2023-01-28T01:45:00.656Z,84.38
2023-01-28T01:50:32.995Z,84.42
2023-01-28T01:55:39.253Z,84.72
2023-01-28T02:00:43.616Z,84.46
2023-01-28T02:05:46.175Z,84.10
2023-01-28T02:10:54.224Z,83.85
2023-01-28T02:16:00.741Z,83.91
2023-01-28T02:21:40.650Z,84.12
2023-01-28T02:26:52.865Z,84.10
2023-01-28T02:32:14.186Z,83.98
2023-01-28T02:37:23.139Z,84.10
2023-01-28T02:42:30.605Z,84.15
2023-01-28T02:47:51.719Z,84.10
2023-01-28T02:53:15.775Z,84.35
2023-01-28T02:59:00.180Z,84.48
2023-01-28T03:04:09.671Z,84.02
2023-01-28T03:09:33.735Z,84.20
2023-01-28T03:14:56.385Z,84.88
2023-01-28T03:20:17.408Z,84.87
2023-01-28T03:25:39.586Z,84.53
2023-01-28T03:31:35.075Z,84.47
2023-01-28T03:36:56.609Z,83.87
2023-01-28T03:42:05.380Z,84.03
2023-01-28T03:47:08.880Z,84.38
2023-01-28T03:52:12.795Z,84.84
2023-01-28T03:57:17.427Z,84.66
2023-01-28T04:02:22.371Z,84.55
2023-01-28T04:07:24.986Z,84.35
2023-01-28T04:12:27.571Z,84.32
2023-01-28T04:17:30.485Z,84.54
2023-01-28T04:22:33.040Z,84.49
2023-01-28T04:27:35.624Z,84.43
2023-01-28T04:32:38.441Z,84.52
2023-01-28T04:37:41.858Z,84.56
2023-01-28T04:42:53.537Z,84.71
2023-01-28T04:47:56.117Z,84.87
2023-01-28T04:52:58.712Z,84.84
2023-01-28T04:58:01.628Z,84.64
2023-01-28T05:03:04.293Z,84.35
2023-01-28T05:08:06.917Z,84.48
2023-01-28T05:13:09.547Z,83.94
2023-01-28T05:18:12.434Z,84.01
2023-01-28T05:23:15.180Z,84.34
2023-01-28T05:28:17.743Z,84.05
2023-01-28T05:33:20.378Z,83.58
2023-01-28T05:38:22.993Z,83.57
2023-01-28T05:43:25.602Z,83.73
2023-01-28T05:48:28.227Z,83.68
2023-01-28T05:53:31.688Z,83.78
2023-01-28T05:58:34.697Z,83.84
2023-01-28T06:03:37.296Z,83.81
2023-01-28T06:08:41.653Z,83.82
2023-01-28T06:13:44.255Z,84.01
2023-01-28T06:18:46.917Z,83.90
2023-01-28T06:23:49.556Z,83.89
2023-01-28T06:28:52.219Z,84.02
2023-01-28T06:33:55.044Z,84.13
2023-01-28T06:38:57.644Z,84.23
2023-01-28T06:44:00.379Z,84.13
2023-01-28T06:49:03.085Z,83.87
2023-01-28T06:54:05.736Z,83.57
2023-01-28T06:59:08.399Z,83.55
2023-01-28T07:04:11.264Z,83.26
2023-01-28T07:09:13.824Z,83.14
2023-01-28T07:14:16.467Z,83.30
2023-01-28T07:19:19.244Z,82.99
2023-01-28T07:24:21.892Z,82.84
2023-01-28T07:29:24.937Z,82.89
2023-01-28T07:34:27.686Z,82.78
2023-01-28T07:39:30.699Z,82.54
2023-01-28T07:44:33.345Z,82.42
2023-01-28T07:49:37.721Z,82.31
2023-01-28T07:54:40.305Z,82.02
2023-01-28T07:59:42.958Z,81.38
2023-01-28T08:04:46.276Z,80.96
2023-01-28T08:09:48.913Z,80.43
2023-01-28T08:14:51.730Z,80.29
2023-01-28T08:19:54.475Z,79.59
2023-01-28T08:24:57.146Z,79.85
2023-01-28T08:30:00.389Z,79.89
2023-01-28T08:35:04.771Z,79.48
2023-01-28T08:40:12.689Z,79.21
2023-01-28T08:45:15.557Z,78.02
2023-01-28T08:50:19.666Z,77.65
2023-01-28T08:55:22.355Z,77.77
2023-01-28T09:00:26.318Z,78.26
2023-01-28T09:05:30.070Z,77.63
2023-01-28T09:10:32.706Z,76.74
2023-01-28T09:15:35.788Z,76.73
2023-01-28T09:20:39.169Z,76.45
2023-01-28T09:25:41.929Z,76.28
2023-01-28T09:30:45.630Z,76.11
2023-01-28T09:35:48.223Z,75.45
2023-01-28T09:40:50.976Z,74.78
2023-01-28T09:45:58.679Z,74.59
2023-01-28T09:51:01.889Z,74.14
2023-01-28T09:56:06.258Z,73.55
2023-01-28T10:01:12.203Z,72.97
2023-01-28T10:06:40.597Z,72.65
2023-01-28T10:11:54.856Z,72.25
2023-01-28T10:17:05.004Z,71.65
2023-01-28T10:22:33.055Z,71.32
2023-01-28T10:27:37.321Z,71.60
2023-01-28T10:32:48.214Z,71.59
2023-01-28T10:37:56.124Z,71.27
2023-01-28T10:42:58.721Z,70.84
2023-01-28T10:48:07.994Z,70.59
2023-01-28T10:53:10.606Z,69.94
2023-01-28T10:58:25.571Z,69.86
2023-01-28T11:03:32.029Z,69.79
2023-01-28T11:08:44.375Z,70.45
2023-01-28T11:13:51.904Z,71.23
2023-01-28T11:19:01.957Z,70.95
2023-01-28T11:24:21.137Z,70.30
2023-01-28T11:29:42.999Z,70.23
2023-01-28T11:34:54.202Z,70.95
2023-01-28T11:40:23.478Z,70.85
2023-01-28T11:45:52.568Z,70.44
2023-01-28T11:51:34.675Z,70.15
2023-01-28T11:56:55.893Z,69.96
2023-01-28T12:02:39.668Z,70.61
2023-01-28T12:08:08.645Z,69.87
2023-01-28T12:13:33.201Z,69.84
2023-01-28T12:18:54.276Z,69.05
2023-01-28T12:24:14.687Z,68.64
2023-01-28T12:29:59.766Z,68.56
2023-01-28T12:35:02.294Z,69.61
2023-01-28T12:40:10.681Z,68.97
2023-01-28T12:45:20.234Z,68.86
2023-01-28T12:50:33.821Z,69.06
2023-01-28T12:56:15.763Z,68.75
2023-01-28T13:01:28.333Z,68.74
2023-01-28T13:06:41.397Z,69.43
2023-01-28T13:11:46.782Z,68.87
2023-01-28T13:16:51.665Z,67.71
2023-01-28T13:21:54.286Z,67.51
2023-01-28T13:26:58.708Z,67.60
2023-01-28T13:32:23.048Z,68.63
2023-01-28T13:37:32.208Z,69.50
2023-01-28T13:42:36.766Z,69.94
2023-01-28T13:47:40.459Z,69.53
2023-01-28T13:52:50.535Z,69.12
2023-01-28T13:58:30.428Z,69.34
2023-01-28T14:03:35.425Z,69.88
2023-01-28T14:09:20.020Z,69.84
2023-01-28T14:14:45.605Z,68.95
2023-01-28T14:19:54.238Z,69.87
2023-01-28T14:25:01.037Z,69.73
2023-01-28T14:30:17.004Z,69.62
2023-01-28T14:35:30.799Z,69.97
2023-01-28T14:40:36.690Z,70.80
2023-01-28T14:46:13.872Z,70.87
2023-01-28T14:51:41.871Z,70.52
2023-01-28T14:56:53.810Z,70.16
2023-01-28T15:01:58.981Z,70.31
2023-01-28T15:07:17.843Z,70.65
2023-01-28T15:12:21.516Z,70.91
2023-01-28T15:17:28.316Z,70.56
2023-01-28T15:22:32.454Z,70.81
2023-01-28T15:27:36.045Z,70.80
2023-01-28T15:32:38.683Z,70.32
2023-01-28T15:37:41.420Z,70.23
2023-01-28T15:42:46.184Z,70.51
2023-01-28T15:47:50.699Z,70.50
2023-01-28T15:52:55.390Z,70.14
2023-01-28T15:58:08.637Z,69.37
2023-01-28T16:03:19.369Z,69.41
2023-01-28T16:08:47.618Z,69.88
2023-01-28T16:13:50.628Z,70.11
2023-01-28T16:18:55.885Z,70.24
2023-01-28T16:24:00.256Z,70.65
2023-01-28T16:29:17.017Z,70.70
2023-01-28T16:34:19.934Z,71.25
2023-01-28T16:39:22.777Z,71.52
2023-01-28T16:44:25.389Z,71.36
2023-01-28T16:49:28.612Z,71.30
2023-01-28T16:54:33.104Z,71.50
2023-01-28T16:59:35.698Z,71.67
2023-01-28T17:04:38.302Z,71.65
2023-01-28T17:09:40.912Z,71.63
2023-01-28T17:14:43.519Z,72.03
2023-01-28T17:19:46.300Z,71.95
2023-01-28T17:24:48.911Z,72.24
2023-01-28T17:29:53.221Z,72.39
2023-01-28T17:34:55.813Z,72.64
2023-01-28T17:39:58.513Z,72.13
2023-01-28T17:45:03.205Z,71.95
2023-01-28T17:50:06.840Z,72.52
2023-01-28T17:55:10.939Z,72.87
2023-01-28T18:00:14.265Z,73.06
2023-01-28T18:05:19.014Z,73.21
2023-01-28T18:10:21.746Z,73.35
2023-01-28T18:15:24.888Z,73.63
2023-01-28T18:20:27.494Z,73.67
2023-01-28T18:25:30.084Z,73.98
2023-01-28T18:30:32.832Z,74.11
2023-01-28T18:35:41.596Z,74.42
2023-01-28T18:40:46.101Z,74.50
2023-01-28T18:45:50.559Z,74.76
2023-01-28T18:50:55.577Z,74.86
2023-01-28T18:56:02.264Z,75.07
2023-01-28T19:01:11.904Z,75.48
2023-01-28T19:06:15.589Z,75.37
2023-01-28T19:11:18.167Z,75.16
2023-01-28T19:16:22.265Z,75.47
2023-01-28T19:21:26.065Z,75.42
2023-01-28T19:26:30.729Z,75.67
2023-01-28T19:31:34.836Z,75.85
2023-01-28T19:36:37.586Z,76.14
2023-01-28T19:41:40.627Z,76.29
2023-01-28T19:46:43.308Z,76.52
2023-01-28T19:51:45.900Z,76.66
2023-01-28T19:56:48.549Z,76.70
2023-01-28T20:01:51.229Z,76.89
2023-01-28T20:06:53.891Z,76.97
2023-01-28T20:11:56.526Z,77.07
2023-01-28T20:17:00.187Z,77.12
2023-01-28T20:22:03.518Z,77.47
2023-01-28T20:27:09.936Z,77.61
2023-01-28T20:32:17.824Z,77.46
2023-01-28T20:37:24.865Z,77.82
2023-01-28T20:42:27.679Z,77.75
2023-01-28T20:47:30.721Z,77.61
2023-01-28T20:52:33.541Z,77.77
2023-01-28T20:57:36.843Z,77.89
2023-01-28T21:02:40.646Z,78.18
2023-01-28T21:07:43.404Z,78.41
2023-01-28T21:12:46.065Z,78.64
2023-01-28T21:17:48.621Z,78.91
2023-01-28T21:22:52.281Z,79.09
2023-01-28T21:27:56.078Z,79.07
2023-01-28T21:32:58.740Z,79.25
2023-01-28T21:38:01.723Z,79.24
2023-01-28T21:43:04.824Z,79.27
2023-01-28T21:48:07.444Z,79.28
2023-01-28T21:53:10.467Z,79.40
2023-01-28T21:58:31.947Z,79.48
2023-01-28T22:03:34.579Z,79.45
2023-01-28T22:08:38.007Z,79.40
2023-01-28T22:13:40.758Z,79.74
2023-01-28T22:18:43.577Z,79.89
2023-01-28T22:23:47.359Z,80.03
2023-01-28T22:28:49.997Z,80.14
2023-01-28T22:33:52.709Z,80.31
2023-01-28T22:38:55.357Z,80.34
2023-01-28T22:44:01.595Z,80.60
2023-01-28T22:49:05.285Z,80.91
2023-01-28T22:54:10.783Z,81.12
2023-01-28T22:59:14.037Z,81.27
2023-01-28T23:04:16.669Z,81.43
2023-01-28T23:09:19.334Z,81.49
2023-01-28T23:14:40.881Z,81.48
2023-01-28T23:20:02.441Z,81.50
2023-01-28T23:25:05.637Z,81.80
2023-01-28T23:30:10.737Z,81.97
2023-01-28T23:35:13.885Z,82.13
2023-01-28T23:40:17.380Z,82.43
2023-01-28T23:45:21.800Z,82.67
2023-01-28T23:50:24.421Z,82.64
2023-01-28T23:55:27.863Z,82.92
